createdAt,value
2022-12-24T00:01:33.994Z,35.35
2022-12-24T00:04:00.881Z,34.95
2022-12-24T00:06:27.633Z,34.28
2022-12-24T00:08:54.055Z,34.13
2022-12-24T00:11:21.009Z,33.53
2022-12-24T00:13:48.087Z,35.03
2022-12-24T00:16:14.620Z,35.47
2022-12-24T00:18:45.863Z,33.47
2022-12-24T00:21:13.077Z,34.17
2022-12-24T00:23:40.875Z,33.67
2022-12-24T00:26:07.786Z,34.25
2022-12-24T00:28:34.397Z,34.03
2022-12-24T00:31:07.600Z,33.97
2022-12-24T00:33:34.077Z,34.08
2022-12-24T00:36:00.493Z,33.67
2022-12-24T00:38:27.194Z,33.75
2022-12-24T00:41:00.101Z,34.20
2022-12-24T00:43:26.686Z,33.60
2022-12-24T00:45:53.227Z,31.73
2022-12-24T00:48:19.783Z,33.42
2022-12-24T00:50:46.382Z,32.83
2022-12-24T00:53:12.894Z,33.72
2022-12-24T00:55:39.297Z,35.05
2022-12-24T00:58:05.729Z,34.50
2022-12-24T01:00:32.246Z,33.50
2022-12-24T01:02:58.742Z,33.53
2022-12-24T01:05:25.496Z,33.45
2022-12-24T01:07:52.057Z,33.42
2022-12-24T01:10:20.323Z,33.92
2022-12-24T01:12:47.440Z,36.22
2022-12-24T01:15:15.604Z,32.63
2022-12-24T01:17:42.352Z,33.22
2022-12-24T01:20:13.034Z,33.47
2022-12-24T01:22:39.461Z,35.47
2022-12-24T01:25:06.375Z,35.95
2022-12-24T01:27:33.223Z,36.88
2022-12-24T01:29:59.722Z,36.97
2022-12-24T01:32:26.243Z,36.38
2022-12-24T01:34:52.747Z,35.85
2022-12-24T01:37:19.170Z,36.85
2022-12-24T01:39:45.575Z,35.63
2022-12-24T01:42:40.345Z,36.55
2022-12-24T01:45:41.287Z,35.28
2022-12-24T01:48:25.772Z,34.47
2022-12-24T01:50:58.724Z,34.17
2022-12-24T01:53:25.807Z,36.22
2022-12-24T01:55:53.249Z,35.22
2022-12-24T01:58:24.103Z,36.55
2022-12-24T02:00:50.546Z,35.13
2022-12-24T02:03:17.808Z,34.42
2022-12-24T02:05:53.476Z,34.15
2022-12-24T02:08:20.293Z,34.67
2022-12-24T02:10:47.843Z,33.75
2022-12-24T02:13:17.800Z,34.88
2022-12-24T02:16:07.140Z,34.22
2022-12-24T02:18:45.378Z,35.13
2022-12-24T02:21:23.759Z,35.00
2022-12-24T02:24:23.390Z,33.67
2022-12-24T02:27:14.404Z,34.00
2022-12-24T02:30:01.693Z,33.78
2022-12-24T02:32:28.073Z,34.65
2022-12-24T02:35:05.540Z,33.72
2022-12-24T02:37:37.207Z,34.40
2022-12-24T02:40:16.234Z,34.03
2022-12-24T02:42:48.350Z,33.90
2022-12-24T02:45:18.137Z,34.60
2022-12-24T02:47:45.912Z,33.67
2022-12-24T02:50:15.225Z,35.42
2022-12-24T02:52:46.792Z,34.07
2022-12-24T02:55:23.082Z,33.13
2022-12-24T02:58:15.101Z,33.00
2022-12-24T03:01:16.321Z,32.20
2022-12-24T03:04:00.564Z,32.67
2022-12-24T03:06:47.225Z,33.05
2022-12-24T03:09:24.561Z,32.65
2022-12-24T03:11:58.315Z,30.92
2022-12-24T03:14:26.303Z,33.08
2022-12-24T03:16:52.896Z,32.55
2022-12-24T03:19:21.987Z,32.88
2022-12-24T03:21:49.751Z,32.10
2022-12-24T03:24:16.223Z,32.13
2022-12-24T03:26:44.957Z,32.45
2022-12-24T03:29:11.748Z,32.40
2022-12-24T03:31:46.900Z,32.35
2022-12-24T03:34:15.049Z,32.97
2022-12-24T03:36:42.377Z,31.52
2022-12-24T03:39:09.835Z,34.03
2022-12-24T03:41:37.818Z,32.25
2022-12-24T03:44:05.512Z,31.23
2022-12-24T03:46:32.026Z,32.50
2022-12-24T03:48:58.688Z,32.33
2022-12-24T03:51:26.146Z,31.58
2022-12-24T03:53:53.729Z,31.83
2022-12-24T03:56:20.743Z,32.35
2022-12-24T03:58:47.354Z,31.23
2022-12-24T04:01:14.015Z,30.55
2022-12-24T04:03:40.597Z,31.02
2022-12-24T04:06:10.042Z,31.30
2022-12-24T04:08:37.166Z,31.60
2022-12-24T04:11:10.150Z,30.40
2022-12-24T04:13:37.027Z,30.52
2022-12-24T04:16:06.860Z,29.98
2022-12-24T04:18:33.827Z,30.20
2022-12-24T04:21:00.296Z,30.23
2022-12-24T04:23:26.714Z,29.92
2022-12-24T04:25:53.199Z,29.30
2022-12-24T04:28:19.595Z,29.40
2022-12-24T04:30:46.170Z,29.73
2022-12-24T04:33:12.689Z,30.88
2022-12-24T04:35:42.627Z,28.42
2022-12-24T04:38:09.977Z,29.08
2022-12-24T04:40:36.691Z,28.58
2022-12-24T04:43:03.132Z,28.55
2022-12-24T04:45:29.588Z,28.98
2022-12-24T04:47:56.318Z,28.80
2022-12-24T04:50:22.789Z,27.83
2022-12-24T04:52:49.264Z,28.25
2022-12-24T04:55:15.740Z,29.58
2022-12-24T04:57:42.431Z,29.10
2022-12-24T05:00:09.860Z,28.75
2022-12-24T05:02:36.534Z,27.80
2022-12-24T05:05:03.604Z,28.27
2022-12-24T05:07:30.090Z,28.25
2022-12-24T05:09:56.632Z,28.73
2022-12-24T05:12:23.410Z,28.38
2022-12-24T05:14:49.835Z,28.52
2022-12-24T05:17:16.320Z,26.95
2022-12-24T05:19:42.790Z,27.45
2022-12-24T05:22:27.511Z,27.50
2022-12-24T05:25:12.410Z,27.85
2022-12-24T05:27:38.832Z,28.38
2022-12-24T05:30:06.123Z,28.20
2022-12-24T05:32:32.695Z,28.65
2022-12-24T05:34:59.092Z,28.48
2022-12-24T05:37:25.671Z,28.17
2022-12-24T05:39:52.055Z,27.90
2022-12-24T05:42:18.433Z,28.95
2022-12-24T05:44:44.838Z,28.10
2022-12-24T05:47:11.466Z,28.27
2022-12-24T05:49:37.830Z,29.45
2022-12-24T05:52:04.563Z,29.25
2022-12-24T05:54:31.020Z,30.25
2022-12-24T05:56:57.583Z,28.88
2022-12-24T05:59:24.039Z,30.00
2022-12-24T06:01:50.512Z,31.27
2022-12-24T06:04:18.579Z,30.20
2022-12-24T06:06:48.183Z,29.75
2022-12-24T06:09:15.157Z,29.23
2022-12-24T06:11:41.608Z,30.23
2022-12-24T06:14:08.473Z,29.70
2022-12-24T06:16:34.940Z,30.17
2022-12-24T06:19:01.444Z,30.83
2022-12-24T06:21:27.851Z,29.15
2022-12-24T06:23:54.326Z,30.52
2022-12-24T06:26:22.582Z,30.67
2022-12-24T06:28:50.407Z,31.08
2022-12-24T06:31:19.085Z,30.23
2022-12-24T06:33:45.688Z,29.45
2022-12-24T06:36:17.882Z,29.55
2022-12-24T06:38:46.069Z,28.60
2022-12-24T06:41:12.807Z,28.50
2022-12-24T06:43:39.229Z,29.77
2022-12-24T06:46:05.874Z,30.40
2022-12-24T06:48:32.490Z,29.15
2022-12-24T06:51:02.281Z,28.65
2022-12-24T06:53:28.821Z,27.85
2022-12-24T06:56:08.972Z,28.45
2022-12-24T06:58:36.058Z,29.15
2022-12-24T07:01:03.670Z,28.00
2022-12-24T07:03:30.842Z,27.85
2022-12-24T07:05:58.555Z,26.85
2022-12-24T07:08:25.206Z,28.02
2022-12-24T07:10:54.461Z,27.80
2022-12-24T07:13:21.648Z,28.10
2022-12-24T07:15:57.358Z,26.95
2022-12-24T07:18:23.807Z,26.25
2022-12-24T07:20:50.289Z,26.63
2022-12-24T07:23:16.788Z,26.83
2022-12-24T07:25:43.401Z,27.20
2022-12-24T07:28:09.932Z,27.63
2022-12-24T07:30:36.419Z,27.92
2022-12-24T07:33:03.161Z,26.70
2022-12-24T07:35:30.664Z,27.73
2022-12-24T07:37:57.417Z,28.90
2022-12-24T07:40:23.828Z,27.88
2022-12-24T07:42:50.272Z,28.73
2022-12-24T07:45:16.889Z,27.23
2022-12-24T07:47:43.390Z,26.75
2022-12-24T07:50:10.455Z,28.15
2022-12-24T07:52:36.956Z,28.13
2022-12-24T07:55:03.521Z,27.85
2022-12-24T07:57:30.078Z,28.45
2022-12-24T07:59:56.502Z,27.45
2022-12-24T08:02:23.161Z,31.88
2022-12-24T08:04:49.753Z,33.15
2022-12-24T08:07:16.161Z,28.08
2022-12-24T08:09:42.702Z,28.27
2022-12-24T08:12:09.175Z,29.88
2022-12-24T08:14:35.572Z,29.83
2022-12-24T08:17:02.042Z,30.52
2022-12-24T08:19:28.478Z,29.38
2022-12-24T08:21:54.961Z,29.55
2022-12-24T08:24:21.418Z,30.38
2022-12-24T08:26:47.944Z,29.92
2022-12-24T08:29:14.436Z,29.08
2022-12-24T08:31:41.820Z,30.38
2022-12-24T08:34:11.092Z,30.50
2022-12-24T08:36:37.759Z,29.35
2022-12-24T08:39:04.371Z,29.33
2022-12-24T08:41:31.904Z,28.27
2022-12-24T08:43:59.151Z,27.98
2022-12-24T08:46:26.083Z,30.85
2022-12-24T08:48:53.129Z,29.77
2022-12-24T08:51:19.839Z,28.98
2022-12-24T08:53:46.765Z,29.40
2022-12-24T08:56:13.961Z,29.50
2022-12-24T08:58:40.510Z,29.02
2022-12-24T09:01:12.655Z,28.80
2022-12-24T09:03:39.421Z,28.77
2022-12-24T09:06:06.794Z,29.33
2022-12-24T09:08:33.745Z,29.92
2022-12-24T09:11:05.632Z,28.65
2022-12-24T09:13:32.101Z,29.17
2022-12-24T09:15:58.558Z,30.00
2022-12-24T09:18:25.606Z,31.17
2022-12-24T09:20:57.244Z,32.13
2022-12-24T09:23:24.101Z,32.15
2022-12-24T09:25:50.555Z,32.35
2022-12-24T09:28:16.969Z,31.48
2022-12-24T09:30:43.373Z,32.83
2022-12-24T09:33:09.900Z,32.05
2022-12-24T09:35:38.691Z,33.47
2022-12-24T09:38:05.185Z,33.83
2022-12-24T09:40:39.950Z,34.55
2022-12-24T09:43:14.307Z,34.13
2022-12-24T09:45:48.516Z,33.40
2022-12-24T09:48:20.148Z,34.35
2022-12-24T09:50:51.742Z,33.97
2022-12-24T09:53:24.354Z,34.00
2022-12-24T09:55:56.417Z,34.60
2022-12-24T09:58:31.914Z,33.15
2022-12-24T10:01:01.757Z,34.55
2022-12-24T10:03:28.433Z,34.45
2022-12-24T10:06:14.490Z,35.30
2022-12-24T10:09:21.620Z,34.67
2022-12-24T10:12:21.395Z,33.67
2022-12-24T10:15:07.023Z,33.90
2022-12-24T10:17:56.924Z,31.58
2022-12-24T10:20:45.466Z,34.22
2022-12-24T10:23:18.196Z,34.58
2022-12-24T10:26:07.577Z,32.50
2022-12-24T10:28:58.398Z,32.53
2022-12-24T10:31:34.999Z,32.65
2022-12-24T10:34:06.037Z,33.13
2022-12-24T10:36:33.150Z,33.20
2022-12-24T10:39:00.096Z,34.15
2022-12-24T10:41:28.148Z,34.88
2022-12-24T10:43:55.543Z,37.78
2022-12-24T10:46:28.114Z,35.75
2022-12-24T10:48:59.291Z,34.95
2022-12-24T10:51:48.230Z,34.85
2022-12-24T10:54:26.548Z,35.83
2022-12-24T10:57:02.397Z,35.73
2022-12-24T10:59:50.402Z,36.30
2022-12-24T11:02:37.260Z,36.65
2022-12-24T11:05:28.806Z,35.45
2022-12-24T11:08:21.609Z,37.40
2022-12-24T11:10:58.769Z,35.78
2022-12-24T11:13:39.015Z,36.83
2022-12-24T11:16:14.968Z,35.97
2022-12-24T11:18:51.941Z,35.63
2022-12-24T11:21:21.718Z,37.65
2022-12-24T11:23:57.640Z,38.73
2022-12-24T11:26:26.714Z,39.60
2022-12-24T11:29:08.541Z,40.35
2022-12-24T11:31:37.382Z,39.88
2022-12-24T11:34:27.619Z,39.35
2022-12-24T11:37:10.689Z,38.42
2022-12-24T11:39:44.807Z,39.10
2022-12-24T11:46:21.017Z,38.88
2022-12-24T11:48:48.866Z,40.05
2022-12-24T11:51:25.090Z,38.55
2022-12-24T11:54:15.442Z,39.40
2022-12-24T11:56:49.523Z,39.67
2022-12-24T11:59:18.996Z,37.45
2022-12-24T12:01:49.803Z,37.90
2022-12-24T12:04:24.507Z,38.35
2022-12-24T12:06:56.737Z,39.92
2022-12-24T12:09:33.299Z,38.90
2022-12-24T12:12:07.534Z,37.90
2022-12-24T12:14:39.713Z,39.15
2022-12-24T12:17:33.460Z,38.65
2022-12-24T12:20:14.369Z,39.53
2022-12-24T12:23:02.494Z,39.05
2022-12-24T12:25:38.196Z,38.58
2022-12-24T12:28:18.344Z,40.72
2022-12-24T12:30:46.938Z,38.88
2022-12-24T12:33:28.319Z,39.08
2022-12-24T12:35:56.045Z,39.15
2022-12-24T12:38:29.150Z,40.38
2022-12-24T12:40:55.574Z,40.78
2022-12-24T12:43:43.571Z,40.88
2022-12-24T12:46:28.702Z,42.10
2022-12-24T12:49:16.431Z,41.22
2022-12-24T12:51:42.741Z,41.60
2022-12-24T12:54:20.633Z,43.22
2022-12-24T12:56:52.134Z,40.92
2022-12-24T12:59:39.351Z,42.08
2022-12-24T13:02:37.188Z,42.03
2022-12-24T13:05:34.717Z,44.55
2022-12-24T13:08:35.586Z,45.75
2022-12-24T13:11:35.870Z,42.55
2022-12-24T13:16:46.645Z,42.22
2022-12-24T13:19:43.903Z,42.40
2022-12-24T13:22:18.563Z,43.85
2022-12-24T13:24:52.120Z,45.92
2022-12-24T13:27:21.038Z,47.70
2022-12-24T13:30:09.947Z,40.03
2022-12-24T13:32:46.648Z,39.75
2022-12-24T13:35:18.983Z,38.58
2022-12-24T13:37:45.858Z,40.90
2022-12-24T13:40:12.259Z,40.15
2022-12-24T13:43:04.766Z,39.72
2022-12-24T13:45:31.580Z,39.03
2022-12-24T13:48:07.264Z,39.53
2022-12-24T13:50:51.867Z,39.65
2022-12-24T13:53:33.103Z,37.05
2022-12-24T13:56:07.799Z,38.22
2022-12-24T13:58:38.881Z,35.90
2022-12-24T14:01:11.212Z,35.45
2022-12-24T14:03:48.930Z,35.92
2022-12-24T14:06:28.901Z,34.45
2022-12-24T14:09:05.418Z,34.58
2022-12-24T14:12:03.900Z,34.85
2022-12-24T14:14:37.046Z,35.42
2022-12-24T14:17:19.367Z,35.25
2022-12-24T14:19:50.850Z,34.05
2022-12-24T14:22:44.061Z,33.95
2022-12-24T14:25:20.081Z,34.13
2022-12-24T14:27:54.116Z,33.53
2022-12-24T14:30:22.480Z,32.22
2022-12-24T14:32:50.939Z,32.97
2022-12-24T14:35:21.536Z,32.67
2022-12-24T14:37:51.851Z,32.53
2022-12-24T14:40:26.418Z,32.95
2022-12-24T14:43:03.036Z,32.92
2022-12-24T14:45:39.850Z,35.05
2022-12-24T14:48:28.725Z,35.53
2022-12-24T14:51:21.977Z,35.20
2022-12-24T14:53:57.960Z,34.72
2022-12-24T14:56:25.448Z,34.58
2022-12-24T14:58:52.486Z,33.20
2022-12-24T15:01:24.001Z,34.30
2022-12-24T15:04:09.172Z,34.78
2022-12-24T15:06:41.974Z,33.92
2022-12-24T15:09:16.763Z,35.08
2022-12-24T15:11:45.601Z,31.40
2022-12-24T15:14:13.409Z,37.58
2022-12-24T15:16:40.584Z,35.38
2022-12-24T15:19:21.443Z,34.67
2022-12-24T15:21:48.105Z,31.65
2022-12-24T15:24:32.125Z,30.70
2022-12-24T15:26:59.663Z,31.70
2022-12-24T15:29:29.398Z,30.70
2022-12-24T15:32:01.123Z,31.38
2022-12-24T15:34:39.581Z,32.28
2022-12-24T15:37:17.967Z,32.15
2022-12-24T15:39:53.173Z,34.67
2022-12-24T15:42:22.401Z,31.65
2022-12-24T15:45:00.684Z,33.72
2022-12-24T15:47:39.715Z,33.25
2022-12-24T15:50:19.952Z,34.25
2022-12-24T15:55:34.356Z,34.08
2022-12-24T15:58:02.398Z,33.10
2022-12-24T16:00:31.082Z,35.03
2022-12-24T16:03:16.784Z,36.60
2022-12-24T16:05:43.432Z,35.50
2022-12-24T16:08:09.820Z,37.38
2022-12-24T16:10:51.664Z,37.80
2022-12-24T16:13:29.294Z,37.42
2022-12-24T16:16:07.173Z,36.72
2022-12-24T16:18:52.533Z,36.08
2022-12-24T16:21:37.834Z,38.65
2022-12-24T16:24:35.883Z,36.88
2022-12-24T16:27:02.419Z,36.58
2022-12-24T16:29:28.955Z,39.92
2022-12-24T16:31:57.495Z,38.80
2022-12-24T16:34:27.188Z,54.47
2022-12-24T16:36:54.282Z,47.83
2022-12-24T16:39:25.692Z,38.50
2022-12-24T16:42:16.996Z,36.40
2022-12-24T16:44:44.310Z,34.50
2022-12-24T16:47:14.583Z,35.97
2022-12-24T16:52:15.104Z,36.40
2022-12-24T16:54:41.491Z,38.78
2022-12-24T16:57:10.167Z,38.80
2022-12-24T16:59:37.881Z,36.97
2022-12-24T17:02:10.884Z,50.03
2022-12-24T17:04:40.676Z,38.65
2022-12-24T17:07:08.127Z,40.03
2022-12-24T17:09:34.601Z,36.13
2022-12-24T17:12:01.237Z,36.75
2022-12-24T17:14:27.625Z,34.85
2022-12-24T17:16:54.044Z,37.55
2022-12-24T17:19:23.604Z,34.50
2022-12-24T17:21:50.102Z,39.53
2022-12-24T17:24:16.496Z,34.08
2022-12-24T17:26:43.585Z,32.65
2022-12-24T17:29:10.640Z,36.10
2022-12-24T17:31:39.262Z,33.60
2022-12-24T17:34:06.634Z,35.22
2022-12-24T17:36:33.070Z,33.42
2022-12-24T17:38:59.449Z,36.45
2022-12-24T17:41:25.953Z,34.08
2022-12-24T17:43:52.495Z,33.15
2022-12-24T17:46:22.411Z,32.78
2022-12-24T17:48:52.425Z,31.30
2022-12-24T17:51:21.618Z,32.38
2022-12-24T17:53:49.066Z,32.08
2022-12-24T17:56:15.931Z,39.03
2022-12-24T17:58:44.117Z,37.53
2022-12-24T18:01:16.273Z,34.78
2022-12-24T18:03:43.424Z,36.25
2022-12-24T18:06:11.480Z,32.38
2022-12-24T18:08:40.136Z,33.88
2022-12-24T18:11:13.871Z,33.65
2022-12-24T18:13:41.647Z,32.42
2022-12-24T18:16:19.525Z,33.05
2022-12-24T18:18:47.043Z,31.90
2022-12-24T18:21:14.332Z,32.42
2022-12-24T18:23:45.944Z,30.90
2022-12-24T18:26:13.485Z,31.02
2022-12-24T18:28:40.602Z,31.02
2022-12-24T18:31:11.058Z,31.88
2022-12-24T18:33:38.104Z,40.55
2022-12-24T18:36:05.603Z,38.80
2022-12-24T18:38:33.536Z,33.88
2022-12-24T18:41:08.281Z,33.92
2022-12-24T18:43:35.038Z,35.95
2022-12-24T18:46:19.869Z,31.63
2022-12-24T18:48:47.057Z,31.52
2022-12-24T18:51:14.121Z,31.13
2022-12-24T18:53:40.629Z,31.55
2022-12-24T18:56:11.947Z,30.20
2022-12-24T18:58:38.875Z,31.00
2022-12-24T19:01:17.301Z,34.38
2022-12-24T19:03:44.445Z,32.28
2022-12-24T19:06:11.370Z,32.47
2022-12-24T19:11:25.658Z,29.40
2022-12-24T19:13:53.151Z,31.50
2022-12-24T19:16:21.032Z,30.17
2022-12-24T19:18:47.670Z,30.95
2022-12-24T19:21:15.894Z,31.42
2022-12-24T19:23:42.615Z,31.23
2022-12-24T19:26:11.058Z,31.23
2022-12-24T19:28:37.642Z,33.10
2022-12-24T19:31:14.546Z,29.85
2022-12-24T19:33:45.925Z,28.73
2022-12-24T19:36:16.088Z,28.83
2022-12-24T19:38:43.365Z,31.02
2022-12-24T19:41:12.644Z,30.02
2022-12-24T19:43:41.679Z,30.60
2022-12-24T19:46:10.137Z,34.05
2022-12-24T19:48:37.217Z,34.97
2022-12-24T19:51:06.631Z,33.15
2022-12-24T19:53:33.978Z,31.40
2022-12-24T19:56:00.432Z,31.60
2022-12-24T19:58:27.824Z,31.50
2022-12-24T20:00:55.116Z,31.02
2022-12-24T20:03:22.157Z,31.17
2022-12-24T20:05:48.647Z,30.75
2022-12-24T20:08:15.092Z,35.90
2022-12-24T20:10:44.026Z,44.85
2022-12-24T20:13:10.898Z,43.70
2022-12-24T20:15:41.558Z,34.92
2022-12-24T20:18:09.503Z,31.90
2022-12-24T20:20:36.626Z,31.95
2022-12-24T20:23:04.435Z,31.50
2022-12-24T20:25:37.113Z,31.60
2022-12-24T20:28:05.006Z,30.15
2022-12-24T20:30:31.419Z,30.98
2022-12-24T20:32:58.051Z,30.98
2022-12-24T20:35:25.671Z,31.42
2022-12-24T20:37:52.085Z,30.38
2022-12-24T20:40:18.619Z,31.25
2022-12-24T20:42:45.040Z,29.45
2022-12-24T20:45:11.508Z,29.33
2022-12-24T20:47:38.773Z,32.15
2022-12-24T20:50:06.175Z,31.70
2022-12-24T20:52:32.566Z,42.30
2022-12-24T20:54:58.954Z,34.15
2022-12-24T20:57:28.790Z,32.70
2022-12-24T20:59:57.915Z,35.50
2022-12-24T21:02:24.654Z,32.75
2022-12-24T21:04:54.185Z,31.38
2022-12-24T21:07:24.722Z,31.02
2022-12-24T21:09:51.168Z,31.48
2022-12-24T21:12:36.016Z,32.10
2022-12-24T21:15:03.218Z,31.85
2022-12-24T21:17:29.714Z,31.73
2022-12-24T21:19:57.159Z,31.27
2022-12-24T21:22:23.686Z,32.35
2022-12-24T21:24:50.147Z,32.50
2022-12-24T21:27:16.512Z,32.58
2022-12-24T21:29:42.992Z,33.30
2022-12-24T21:32:09.426Z,32.72
2022-12-24T21:34:35.959Z,33.17
2022-12-24T21:37:02.380Z,33.22
2022-12-24T21:39:28.772Z,33.40
2022-12-24T21:41:55.153Z,31.77
2022-12-24T21:44:21.567Z,33.45
2022-12-24T21:46:48.284Z,34.00
2022-12-24T21:49:33.063Z,33.58
2022-12-24T21:51:59.938Z,32.50
2022-12-24T21:54:27.137Z,32.10
2022-12-24T21:57:15.085Z,31.35
2022-12-24T21:59:41.824Z,32.35
2022-12-24T22:02:11.288Z,33.50
2022-12-24T22:04:37.913Z,34.30
2022-12-24T22:07:23.502Z,33.28
2022-12-24T22:10:08.420Z,31.45
2022-12-24T22:12:35.737Z,32.22
2022-12-24T22:15:05.781Z,34.70
2022-12-24T22:17:32.287Z,32.47
2022-12-24T22:19:58.723Z,33.83
2022-12-24T22:22:25.155Z,36.63
2022-12-24T22:24:51.692Z,35.00
2022-12-24T22:27:18.427Z,32.83
2022-12-24T22:29:44.922Z,34.50
2022-12-24T22:32:11.429Z,32.97
2022-12-24T22:34:37.888Z,34.08
2022-12-24T22:37:04.295Z,33.28
2022-12-24T22:39:30.801Z,34.67
2022-12-24T22:41:58.108Z,34.55
2022-12-24T22:44:25.071Z,34.15
2022-12-24T22:46:51.502Z,34.08
2022-12-24T22:49:17.932Z,35.40
2022-12-24T22:51:44.350Z,37.80
2022-12-24T22:54:10.965Z,34.28
2022-12-24T22:56:41.359Z,36.28
2022-12-24T22:59:12.425Z,35.88
2022-12-24T23:01:40.953Z,37.22
2022-12-24T23:04:08.137Z,34.55
2022-12-24T23:06:35.569Z,36.88
2022-12-24T23:09:03.040Z,36.33
2022-12-24T23:11:29.554Z,36.05
2022-12-24T23:14:14.577Z,34.63
2022-12-24T23:16:41.265Z,35.38
2022-12-24T23:19:07.800Z,34.63
2022-12-24T23:21:36.084Z,35.05
2022-12-24T23:24:03.020Z,35.83
2022-12-24T23:26:29.781Z,35.10
2022-12-24T23:28:57.391Z,36.13
2022-12-24T23:31:25.485Z,36.30
2022-12-24T23:33:52.174Z,35.42
2022-12-24T23:36:19.779Z,37.05
2022-12-24T23:38:46.186Z,34.65
2022-12-24T23:41:12.752Z,35.95
2022-12-24T23:43:39.401Z,34.45
2022-12-24T23:46:06.295Z,35.35
2022-12-24T23:48:32.880Z,36.58
2022-12-24T23:51:07.293Z,36.63
2022-12-24T23:53:33.726Z,37.20
2022-12-24T23:56:00.737Z,36.00
2022-12-24T23:58:28.107Z,35.80
